Terminal Aerodrome Forecast
Issued by NWS Charleston, SC

Home | Current Version | Previous Version | Text Only | Print | Product List | Glossary On
Versions: 1 2 3 4 5 6 7 8 9 10 11 12 13 14 15 16 17
346
FTUS42 KCHS 090113 AAA
TAFCHS
TAF AMD
KCHS 090113Z 0901/0924 26012KT P6SM -RA BKN045
     FM090200 29012G20KT P6SM BKN060
     FM090600 27015G22KT P6SM SCT050
     FM091600 26021G30KT P6SM SCT035 BKN050=

USA.gov is the U.S. government's official web portal to all federal, state and local government web resources and services.